Time;durP1;ratioP1;P1;durP2;ratioP2;P2;SDS_P1;SDS_P2;PMS_P1;PMS_P2;Temp;Humidity;BMP_temperature;BMP_pressure;BME280_temperature;BME280_humidity;BME280_pressure;Samples;Min_cycle;Max_cycle;Signal;HPM_P1;HPM_P2
2021/10/31 00:01:44;;;;;;;3.72;3.35;;;;;;;8.72;100.00;95322.00;5072906;28;24419;-76
2021/10/31 00:04:10;;;;;;;4.45;4.05;;;;;;;8.92;100.00;95322.50;5074300;28;24429;-75
2021/10/31 00:06:37;;;;;;;7.07;3.65;;;;;;;8.89;100.00;95323.50;5074053;28;25096;-76
2021/10/31 00:09:07;;;;;;;4.53;3.60;;;;;;;8.92;100.00;95317.31;5074063;28;24803;-76
2021/10/31 00:11:35;;;;;;;3.80;3.40;;;;;;;8.91;100.00;95334.59;5074231;28;24438;-76
2021/10/31 00:14:02;;;;;;;3.70;3.30;;;;;;;8.86;100.00;95335.78;5074103;28;24442;-75
2021/10/31 00:16:28;;;;;;;3.17;2.80;;;;;;;8.81;100.00;95335.25;5073748;28;24525;-76
2021/10/31 00:18:55;;;;;;;3.92;3.13;;;;;;;8.77;100.00;95334.63;5074153;28;20760;-76
2021/10/31 00:21:22;;;;;;;5.38;3.35;;;;;;;8.71;100.00;95342.72;5074061;28;20908;-76
2021/10/31 00:23:49;;;;;;;3.85;3.10;;;;;;;8.64;100.00;95338.88;5073823;28;24522;-76
2021/10/31 00:26:16;;;;;;;3.67;2.92;;;;;;;8.63;100.00;95335.47;5073379;28;24989;-76
2021/10/31 00:28:44;;;;;;;5.68;3.45;;;;;;;8.64;100.00;95334.56;5073836;28;24445;-76
2021/10/31 00:31:10;;;;;;;3.97;3.10;;;;;;;8.62;100.00;95336.41;5073853;28;21321;-76
2021/10/31 00:33:37;;;;;;;4.60;3.28;;;;;;;8.66;100.00;95334.47;5073835;28;24426;-76
2021/10/31 00:36:04;;;;;;;4.32;2.90;;;;;;;8.60;100.00;95335.69;5073377;28;24454;-75
2021/10/31 00:38:30;;;;;;;7.07;3.17;;;;;;;8.58;100.00;95341.84;5073757;28;20753;-76
2021/10/31 00:40:57;;;;;;;4.47;3.45;;;;;;;8.54;100.00;95340.38;5073930;28;20761;-75
2021/10/31 00:43:23;;;;;;;9.90;3.03;;;;;;;8.56;100.00;95334.19;5073897;28;24419;-76
2021/10/31 00:45:51;;;;;;;5.18;3.55;;;;;;;8.56;100.00;95336.78;5073517;28;21111;-76
2021/10/31 00:48:18;;;;;;;7.30;3.53;;;;;;;8.46;100.00;95341.69;5073954;28;20860;-76
2021/10/31 00:50:49;;;;;;;5.22;3.60;;;;;;;8.44;100.00;95338.34;5073754;28;20753;-76
2021/10/31 00:53:16;;;;;;;3.72;3.20;;;;;;;8.41;100.00;95340.28;5073629;28;20794;-76
2021/10/31 00:55:43;;;;;;;4.18;3.30;;;;;;;8.37;100.00;95346.53;5073617;28;20804;-76
2021/10/31 00:58:12;;;;;;;5.13;3.13;;;;;;;8.36;100.00;95340.56;5073419;28;24422;-76
2021/10/31 01:00:39;;;;;;;3.50;3.20;;;;;;;8.27;100.00;95351.44;5073570;28;20752;-76
2021/10/31 01:03:07;;;;;;;4.17;3.23;;;;;;;8.23;100.00;95357.69;5073324;28;20760;-76
2021/10/31 01:05:41;;;;;;;6.03;3.38;;;;;;;8.19;100.00;95351.91;5073242;28;20790;-76
2021/10/31 01:08:40;;;;;;;4.28;3.72;;;;;;;8.12;100.00;95363.50;5074207;28;21157;-76
2021/10/31 01:11:19;;;;;;;3.85;3.40;;;;;;;8.05;100.00;95357.06;5058203;28;20828;-76
2021/10/31 01:13:58;;;;;;;5.27;4.00;;;;;;;8.10;100.00;95357.59;5072063;28;20879;-76
2021/10/31 01:16:38;;;;;;;5.15;3.85;;;;;;;8.09;100.00;95352.53;5073009;28;21023;-76
2021/10/31 01:19:39;;;;;;;4.05;3.65;;;;;;;8.06;100.00;95347.56;5072963;28;21228;-76
2021/10/31 01:22:16;;;;;;;5.20;3.85;;;;;;;8.03;100.00;95347.75;5072841;28;20631;-76
2021/10/31 01:25:04;;;;;;;5.23;3.70;;;;;;;8.06;100.00;95348.38;5072744;28;20771;-76
2021/10/31 01:27:46;;;;;;;4.47;3.37;;;;;;;7.98;100.00;95346.25;5072557;28;20670;-76
2021/10/31 01:30:19;;;;;;;4.05;3.35;;;;;;;7.99;100.00;95354.81;5072868;28;20744;-76
2021/10/31 01:33:00;;;;;;;3.72;3.22;;;;;;;7.92;100.00;95349.19;5072705;28;21151;-76
2021/10/31 01:35:43;;;;;;;4.15;3.45;;;;;;;7.86;100.00;95351.31;5072545;28;20658;-76
2021/10/31 01:38:21;;;;;;;4.22;3.67;;;;;;;7.90;100.00;95355.38;5072812;28;20631;-76
2021/10/31 01:40:55;;;;;;;3.50;3.20;;;;;;;7.89;100.00;95356.28;5072965;28;20723;-76
2021/10/31 01:43:30;;;;;;;3.33;3.03;;;;;;;7.80;100.00;95359.41;5073186;28;24416;-76
2021/10/31 01:46:07;;;;;;;3.78;3.30;;;;;;;7.76;100.00;95356.19;5072806;28;20676;-76
2021/10/31 01:48:43;;;;;;;3.97;3.10;;;;;;;7.70;100.00;95359.09;5073066;28;20670;-76
2021/10/31 01:51:15;;;;;;;4.40;3.40;;;;;;;7.73;100.00;95357.19;5073163;28;20639;-76
2021/10/31 01:53:52;;;;;;;2.90;2.70;;;;;;;7.71;100.00;95351.31;5073169;28;20731;-76
2021/10/31 01:56:20;;;;;;;5.47;3.13;;;;;;;7.67;100.00;95348.97;5072508;28;20918;-76
2021/10/31 01:58:52;;;;;;;3.35;2.80;;;;;;;7.69;100.00;95345.41;5072819;28;24422;-76
2021/10/31 02:01:20;;;;;;;5.45;3.50;;;;;;;7.69;100.00;95347.16;5072688;28;20797;-76
2021/10/31 02:03:49;;;;;;;3.60;3.20;;;;;;;7.78;100.00;95341.44;5072572;28;24438;-76
2021/10/31 02:06:18;;;;;;;4.47;2.95;;;;;;;7.77;100.00;95344.94;5072460;28;20798;-76
2021/10/31 02:08:47;;;;;;;5.03;2.78;;;;;;;7.76;100.00;95340.72;5072575;28;20745;-77
2021/10/31 02:11:16;;;;;;;3.37;2.77;;;;;;;7.66;100.00;95334.44;5072612;28;20802;-75
2021/10/31 02:13:46;;;;;;;3.08;2.78;;;;;;;7.63;100.00;95335.44;5072532;28;20809;-76
2021/10/31 02:16:15;;;;;;;3.83;3.03;;;;;;;7.67;100.00;95326.59;5072165;28;20929;-77
2021/10/31 02:18:42;;;;;;;4.00;3.00;;;;;;;7.70;100.00;95320.44;5072670;28;20793;-76
2021/10/31 02:21:11;;;;;;;3.75;2.78;;;;;;;7.66;100.00;95322.38;5073101;28;20765;-77
2021/10/31 02:23:39;;;;;;;4.80;3.08;;;;;;;7.63;100.00;95329.44;5071610;28;20836;-77
2021/10/31 02:26:05;;;;;;;8.70;5.57;;;;;;;7.62;100.00;95335.53;5070973;28;24438;-77
2021/10/31 02:28:32;;;;;;;5.32;3.47;;;;;;;7.61;100.00;95342.44;5072164;28;24421;-76
2021/10/31 02:30:58;;;;;;;6.10;3.00;;;;;;;7.62;100.00;95343.25;5071904;28;20784;-76
2021/10/31 02:33:25;;;;;;;2.53;2.33;;;;;;;7.61;100.00;95347.59;5071551;28;24415;-75
2021/10/31 02:35:51;;;;;;;3.00;2.70;;;;;;;7.68;100.00;95351.47;5070820;28;24447;-76
2021/10/31 02:38:18;;;;;;;3.35;2.70;;;;;;;7.70;100.00;95347.03;5071613;28;20883;-76
2021/10/31 02:40:46;;;;;;;3.60;3.25;;;;;;;7.64;100.00;95352.56;5071196;28;20753;-76
2021/10/31 02:43:12;;;;;;;3.35;3.05;;;;;;;7.62;100.00;95341.50;5071301;28;20769;-76
2021/10/31 02:45:39;;;;;;;3.28;2.97;;;;;;;7.67;100.00;95346.38;5070544;28;20773;-76
2021/10/31 02:48:10;;;;;;;5.20;4.70;;;;;;;7.69;100.00;95340.25;5071191;28;20765;-76
2021/10/31 02:50:40;;;;;;;5.25;4.25;;;;;;;7.68;100.00;95337.75;5071179;28;20698;-76
2021/10/31 02:53:24;;;;;;;3.28;2.90;;;;;;;7.58;100.00;95347.75;5071037;28;20805;-75
2021/10/31 02:56:07;;;;;;;3.97;3.58;;;;;;;7.47;100.00;95338.06;5070570;28;20699;-75
2021/10/31 02:58:38;;;;;;;4.57;3.50;;;;;;;7.54;100.00;95335.16;5071155;28;24790;-75
2021/10/31 03:01:07;;;;;;;3.15;2.53;;;;;;;7.52;100.00;95340.38;5070902;28;24418;-76
2021/10/31 03:03:34;;;;;;;1.63;1.52;;;;;;;7.44;100.00;95338.25;5071018;28;20743;-75
2021/10/31 03:06:04;;;;;;;3.72;1.52;;;;;;;7.39;100.00;95332.53;5070408;28;24427;-76
2021/10/31 03:08:31;;;;;;;2.70;2.17;;;;;;;7.37;100.00;95329.19;5070779;28;20799;-76
2021/10/31 03:11:00;;;;;;;2.63;2.25;;;;;;;7.27;100.00;95328.09;5070910;28;24469;-77
2021/10/31 03:13:28;;;;;;;4.20;2.40;;;;;;;7.28;100.00;95322.84;5070701;28;24418;-76
2021/10/31 03:15:55;;;;;;;2.47;2.03;;;;;;;7.30;100.00;95322.72;5070388;28;20786;-75
2021/10/31 03:18:22;;;;;;;2.30;2.10;;;;;;;7.23;100.00;95314.56;5070869;28;20789;-76
2021/10/31 03:20:49;;;;;;;2.53;2.33;;;;;;;7.22;100.00;95323.19;5070675;28;20794;-75
2021/10/31 03:23:16;;;;;;;3.85;2.35;;;;;;;7.16;100.00;95315.81;5070796;28;20758;-75
2021/10/31 03:25:42;;;;;;;2.50;2.30;;;;;;;7.20;100.00;95312.16;5070341;28;24426;-76
2021/10/31 03:28:10;;;;;;;2.47;2.28;;;;;;;7.26;100.00;95316.09;5070738;28;24435;-76
2021/10/31 03:30:37;;;;;;;5.55;2.20;;;;;;;7.13;100.00;95323.72;5070778;28;20791;-75
2021/10/31 03:33:04;;;;;;;4.03;3.65;;;;;;;7.17;100.00;95321.78;5070827;28;24426;-76
2021/10/31 03:35:31;;;;;;;14.55;11.73;;;;;;;7.21;100.00;95313.78;5069465;28;24999;-75
2021/10/31 03:37:58;;;;;;;12.23;8.82;;;;;;;7.23;100.00;95308.53;5070915;28;21115;-75
2021/10/31 03:40:24;;;;;;;12.57;8.50;;;;;;;7.25;100.00;95299.81;5070857;28;20768;-76
2021/10/31 03:42:51;;;;;;;9.88;7.22;;;;;;;7.17;100.00;95311.50;5070560;28;20753;-75
2021/10/31 03:45:20;;;;;;;5.40;4.60;;;;;;;7.14;100.00;95306.50;5070165;28;24419;-75
2021/10/31 03:47:47;;;;;;;4.38;3.65;;;;;;;7.17;100.00;95312.31;5070166;28;20810;-75
2021/10/31 03:50:15;;;;;;;3.47;3.00;;;;;;;7.24;100.00;95303.31;5070286;28;20774;-75
2021/10/31 03:52:41;;;;;;;4.25;2.97;;;;;;;7.27;100.00;95310.88;5070532;28;21162;-75
2021/10/31 03:55:08;;;;;;;3.50;2.80;;;;;;;7.29;100.00;95310.78;5070033;28;24434;-75
2021/10/31 03:57:35;;;;;;;4.40;3.45;;;;;;;7.33;100.00;95306.28;5070157;28;20769;-75
2021/10/31 04:00:02;;;;;;;4.32;3.30;;;;;;;7.28;100.00;95298.81;5070214;28;24418;-75
2021/10/31 04:02:30;;;;;;;3.60;3.13;;;;;;;7.32;100.00;95295.16;5070166;28;24434;-76
2021/10/31 04:04:56;;;;;;;3.05;2.75;;;;;;;7.35;100.00;95291.59;5069718;28;20784;-76
2021/10/31 04:07:23;;;;;;;5.03;4.35;;;;;;;7.42;100.00;95304.03;5070239;28;24427;-76
2021/10/31 04:09:49;;;;;;;13.60;9.18;;;;;;;7.48;100.00;95302.81;5070299;28;25085;-76
2021/10/31 04:12:16;;;;;;;8.23;5.72;;;;;;;7.52;100.00;95312.03;5070104;28;24429;-75
2021/10/31 04:14:42;;;;;;;7.07;5.82;;;;;;;7.55;100.00;95303.31;5069788;28;24422;-76
2021/10/31 04:17:09;;;;;;;7.45;5.63;;;;;;;7.56;100.00;95302.38;5069767;28;24443;-76
2021/10/31 04:19:36;;;;;;;4.15;3.78;;;;;;;7.57;100.00;95301.47;5070310;28;24442;-76
2021/10/31 04:22:03;;;;;;;3.28;2.97;;;;;;;7.56;100.00;95297.22;5070317;28;20861;-76
2021/10/31 04:24:31;;;;;;;4.10;3.15;;;;;;;7.56;100.00;95312.69;5069792;28;24428;-75
2021/10/31 04:27:00;;;;;;;4.43;3.53;;;;;;;7.54;100.00;95305.06;5069902;28;21274;-76
2021/10/31 04:29:26;;;;;;;6.32;4.60;;;;;;;7.51;100.00;95302.66;5069912;28;20813;-76
2021/10/31 04:31:54;;;;;;;6.80;4.90;;;;;;;7.47;100.00;95309.72;5069771;28;24414;-76
2021/10/31 04:34:20;;;;;;;3.05;2.78;;;;;;;7.50;100.00;95301.00;5069900;28;21313;-76
2021/10/31 04:36:50;;;;;;;3.03;2.53;;;;;;;7.49;100.00;95305.31;5069891;28;24458;-76
2021/10/31 04:39:16;;;;;;;2.80;2.53;;;;;;;7.46;100.00;95302.91;5069966;28;24860;-76
2021/10/31 04:41:45;;;;;;;5.38;4.22;;;;;;;7.47;100.00;95306.31;5069997;28;24423;-76
2021/10/31 04:44:12;;;;;;;4.93;4.15;;;;;;;7.46;100.00;95302.91;5069706;28;21306;-74
2021/10/31 04:46:38;;;;;;;4.88;3.85;;;;;;;7.44;100.00;95302.16;5069870;28;24438;-76
2021/10/31 04:49:04;;;;;;;4.68;4.10;;;;;;;7.46;100.00;95290.03;5073307;28;24975;-76
2021/10/31 04:51:31;;;;;;;4.90;3.97;;;;;;;7.46;100.00;95286.63;5073483;28;24418;-76
2021/10/31 04:53:59;;;;;;;10.15;8.63;;;;;;;7.43;100.00;95285.06;5073289;28;24987;-76
2021/10/31 04:56:25;;;;;;;7.75;6.95;;;;;;;7.50;100.00;95282.97;5072669;28;24451;-76
2021/10/31 04:58:53;;;;;;;5.97;4.88;;;;;;;7.48;100.00;95290.75;5073797;28;21290;-76
2021/10/31 05:01:20;;;;;;;5.03;3.75;;;;;;;7.48;100.00;95280.44;5074013;28;21127;-75
2021/10/31 05:03:47;;;;;;;3.83;3.42;;;;;;;7.50;100.00;95288.94;5073178;28;20753;-75
2021/10/31 05:06:14;;;;;;;7.05;3.72;;;;;;;7.48;100.00;95282.22;5072931;28;21189;-76
2021/10/31 05:08:40;;;;;;;3.10;2.80;;;;;;;7.50;100.00;95272.66;5073228;28;20764;-76
2021/10/31 05:11:09;;;;;;;3.35;2.85;;;;;;;7.48;100.00;95270.16;5073366;28;24415;-76
2021/10/31 05:13:36;;;;;;;2.55;2.30;;;;;;;7.46;100.00;95268.59;5073594;28;21178;-76
2021/10/31 05:16:03;;;;;;;3.38;2.72;;;;;;;7.52;100.00;95260.50;5072816;28;21151;-76
2021/10/31 05:18:29;;;;;;;2.78;2.53;;;;;;;7.55;100.00;95255.16;5073428;28;20772;-75
2021/10/31 05:20:56;;;;;;;4.15;2.70;;;;;;;7.57;100.00;95249.94;5073012;28;24411;-76
2021/10/31 05:23:22;;;;;;;3.58;2.80;;;;;;;7.50;100.00;95255.44;5073253;28;24421;-76
2021/10/31 05:25:48;;;;;;;4.38;2.80;;;;;;;7.50;100.00;95252.03;5072262;28;24429;-75
2021/10/31 05:28:16;;;;;;;3.75;3.30;;;;;;;7.46;100.00;95253.16;5072511;28;24453;-76
2021/10/31 05:30:43;;;;;;;3.67;3.13;;;;;;;7.46;100.00;95251.38;5072917;28;20794;-76
2021/10/31 05:33:10;;;;;;;4.55;3.05;;;;;;;7.54;100.00;95247.53;5072588;28;25046;-76
2021/10/31 05:35:37;;;;;;;3.88;2.70;;;;;;;7.60;100.00;95250.59;5072240;28;24468;-76
2021/10/31 05:38:05;;;;;;;4.53;3.10;;;;;;;7.60;100.00;95244.56;5072429;28;24414;-77
2021/10/31 05:40:31;;;;;;;3.53;3.00;;;;;;;7.57;100.00;95255.91;5063172;28;24438;-76
2021/10/31 05:42:58;;;;;;;4.27;3.23;;;;;;;7.49;100.00;95258.09;5052609;28;24460;-76
2021/10/31 05:45:27;;;;;;;4.63;3.08;;;;;;;7.48;100.00;95253.88;5052575;28;20755;-76
2021/10/31 05:47:54;;;;;;;4.63;2.97;;;;;;;7.48;100.00;95249.53;5083523;22;24535;-74
2021/10/31 05:50:21;;;;;;;3.15;2.78;;;;;;;7.38;100.00;95248.44;5072287;28;21324;-74
2021/10/31 05:52:47;;;;;;;3.15;2.85;;;;;;;7.33;100.00;95236.72;5072099;28;24815;-74
2021/10/31 05:55:15;;;;;;;2.88;2.45;;;;;;;7.36;100.00;95229.66;5071439;28;24970;-74
2021/10/31 05:57:43;;;;;;;2.65;2.38;;;;;;;7.31;100.00;95239.41;5072067;28;24525;-74
2021/10/31 06:00:11;;;;;;;5.93;3.23;;;;;;;7.38;100.00;95238.13;5071485;28;24496;-74
2021/10/31 06:02:39;;;;;;;3.78;3.30;;;;;;;7.44;100.00;95234.34;5071843;28;25025;-74
2021/10/31 06:05:07;;;;;;;4.35;3.08;;;;;;;7.50;100.00;95232.25;5071559;28;24426;-74
2021/10/31 06:07:34;;;;;;;3.17;2.80;;;;;;;7.57;100.00;95227.56;5071604;28;24418;-74
2021/10/31 06:10:00;;;;;;;3.33;3.00;;;;;;;7.57;100.00;95234.47;5072176;28;20768;-74
2021/10/31 06:12:27;;;;;;;2.70;2.45;;;;;;;7.53;100.00;95231.25;5071952;28;24427;-75
2021/10/31 06:14:54;;;;;;;2.97;2.65;;;;;;;7.39;100.00;95239.78;5071537;28;20754;-74
2021/10/31 06:17:20;;;;;;;3.00;2.70;;;;;;;7.23;100.00;95237.28;5071568;28;24820;-74
2021/10/31 06:19:48;;;;;;;3.72;2.90;;;;;;;7.17;100.00;95240.19;5071602;28;24418;-74
2021/10/31 06:22:15;;;;;;;3.17;2.85;;;;;;;7.24;100.00;95240.69;5071475;28;20805;-74
2021/10/31 06:24:41;;;;;;;3.22;2.92;;;;;;;7.28;100.00;95227.53;5071576;28;21129;-74
2021/10/31 06:27:08;;;;;;;5.53;2.97;;;;;;;7.26;100.00;95241.41;5071654;28;24768;-74
2021/10/31 06:29:34;;;;;;;3.28;2.97;;;;;;;7.23;100.00;95239.00;5071497;28;21123;-74
2021/10/31 06:32:01;;;;;;;3.42;3.13;;;;;;;7.31;100.00;95236.00;5071856;28;21274;-74
2021/10/31 06:34:27;;;;;;;3.45;2.88;;;;;;;7.31;100.00;95239.41;5071078;28;24421;-74
2021/10/31 06:36:55;;;;;;;2.88;2.67;;;;;;;7.25;100.00;95232.84;5070946;28;24537;-75
2021/10/31 06:39:22;;;;;;;3.00;2.70;;;;;;;7.26;100.00;95224.19;5071321;28;24822;-74
2021/10/31 06:41:48;;;;;;;2.97;2.73;;;;;;;7.30;100.00;95235.16;5071368;28;24468;-74
2021/10/31 06:44:15;;;;;;;3.63;3.22;;;;;;;7.33;100.00;95239.31;5071273;28;20770;-74
2021/10/31 06:46:41;;;;;;;5.60;2.92;;;;;;;7.31;100.00;95244.56;5070822;28;20772;-74
2021/10/31 06:49:09;;;;;;;4.78;3.15;;;;;;;7.18;100.00;95244.44;5070947;28;24414;-74
2021/10/31 06:51:36;;;;;;;3.80;2.78;;;;;;;7.29;100.00;95248.97;5065907;28;24526;-74
2021/10/31 06:54:03;;;;;;;4.43;2.78;;;;;;;7.38;100.00;95240.72;5069276;28;24430;-74
2021/10/31 06:56:30;;;;;;;5.60;3.30;;;;;;;7.47;100.00;95242.72;5069808;28;24466;-74
2021/10/31 06:58:58;;;;;;;4.10;3.20;;;;;;;7.50;100.00;95232.25;5070472;28;24427;-75
2021/10/31 07:01:24;;;;;;;3.50;3.20;;;;;;;7.57;100.00;95226.75;5070756;28;24536;-74
2021/10/31 07:03:51;;;;;;;3.20;2.90;;;;;;;7.69;100.00;95239.72;5070622;28;24469;-74
2021/10/31 07:06:17;;;;;;;3.75;2.80;;;;;;;7.79;100.00;95234.00;5070602;28;24423;-75
2021/10/31 07:08:45;;;;;;;3.10;2.73;;;;;;;7.91;100.00;95228.13;5071039;28;20757;-74
2021/10/31 07:11:12;;;;;;;3.83;3.38;;;;;;;8.02;100.00;95232.63;5069860;28;24422;-75
2021/10/31 07:13:40;;;;;;;4.23;3.20;;;;;;;8.14;100.00;95231.84;5071647;28;20794;-76
2021/10/31 07:16:06;;;;;;;4.22;2.80;;;;;;;8.22;100.00;95235.59;5070362;28;24429;-76
2021/10/31 07:18:33;;;;;;;5.15;3.05;;;;;;;8.33;100.00;95234.94;5070450;28;24419;-74
2021/10/31 07:21:00;;;;;;;3.53;2.67;;;;;;;8.37;100.00;95233.84;5070632;28;24423;-74
2021/10/31 07:23:27;;;;;;;3.22;2.60;;;;;;;8.47;100.00;95240.09;5070767;28;24513;-74
2021/10/31 07:25:53;;;;;;;3.45;2.72;;;;;;;8.58;100.00;95239.44;5070372;28;24419;-74
2021/10/31 07:28:23;;;;;;;3.08;2.65;;;;;;;8.72;100.00;95239.38;5070851;28;24419;-74
2021/10/31 07:30:50;;;;;;;4.00;2.70;;;;;;;8.91;100.00;95230.47;5070559;28;24445;-73
2021/10/31 07:33:16;;;;;;;3.38;2.22;;;;;;;9.11;100.00;95235.13;5070639;28;20791;-73
2021/10/31 07:35:43;;;;;;;2.88;2.58;;;;;;;9.22;100.00;95224.09;5070383;28;24501;-75
2021/10/31 07:38:10;;;;;;;3.45;2.72;;;;;;;9.37;100.00;95228.25;5070606;28;24500;-73
2021/10/31 07:40:36;;;;;;;4.63;2.97;;;;;;;9.51;100.00;95221.34;5070429;28;24514;-73
2021/10/31 07:43:04;;;;;;;3.50;2.80;;;;;;;9.64;100.00;95223.00;5070246;28;24775;-74
2021/10/31 07:45:33;;;;;;;3.28;2.97;;;;;;;9.67;100.00;95217.59;5070174;28;20754;-73
2021/10/31 07:48:01;;;;;;;3.25;2.95;;;;;;;9.63;100.00;95210.97;5070468;28;20764;-75
2021/10/31 07:50:33;;;;;;;3.10;2.80;;;;;;;9.68;100.00;95218.44;5070092;28;20769;-75
2021/10/31 07:53:00;;;;;;;3.85;2.70;;;;;;;9.69;100.00;95218.34;5070596;28;20681;-75
2021/10/31 07:55:31;;;;;;;4.05;3.17;;;;;;;9.73;100.00;95216.38;5070413;28;24441;-73
2021/10/31 07:57:58;;;;;;;3.08;2.78;;;;;;;9.84;100.00;95203.53;5070725;28;20828;-74
2021/10/31 08:00:25;;;;;;;3.67;2.80;;;;;;;9.83;100.00;95203.66;5070644;28;24422;-73
2021/10/31 08:02:53;;;;;;;2.88;2.38;;;;;;;9.83;100.00;95203.66;5070693;28;21160;-73
2021/10/31 08:05:20;;;;;;;2.92;2.72;;;;;;;9.93;100.00;95205.47;5069950;28;24480;-74
2021/10/31 08:07:46;;;;;;;3.17;2.78;;;;;;;10.00;100.00;95205.06;5070310;28;24430;-67
2021/10/31 08:10:13;;;;;;;2.53;2.25;;;;;;;10.05;100.00;95197.78;5070117;28;24955;-74
2021/10/31 08:12:39;;;;;;;4.88;2.78;;;;;;;10.06;100.00;95202.06;5070570;28;24426;-75
2021/10/31 08:15:07;;;;;;;3.17;2.75;;;;;;;10.08;100.00;95195.81;5070457;28;20766;-75
2021/10/31 08:17:34;;;;;;;3.78;2.70;;;;;;;10.13;100.00;95192.94;5070284;28;24445;-75
2021/10/31 08:20:02;;;;;;;2.65;2.45;;;;;;;10.30;100.00;95194.34;5063596;28;24431;-76
2021/10/31 08:22:28;;;;;;;5.30;2.50;;;;;;;10.46;100.00;95194.09;5052412;28;20795;-76
2021/10/31 08:24:55;;;;;;;3.78;2.70;;;;;;;10.75;100.00;95191.97;5053720;28;24523;-76
2021/10/31 08:27:22;;;;;;;2.70;2.50;;;;;;;10.92;100.00;95185.59;5053811;28;24423;-76
2021/10/31 08:29:50;;;;;;;3.40;2.50;;;;;;;11.09;100.00;95174.81;5053851;28;24415;-76
2021/10/31 08:32:16;;;;;;;2.80;2.50;;;;;;;11.34;100.00;95168.59;5054209;28;24430;-76
2021/10/31 08:34:43;;;;;;;2.30;2.10;;;;;;;11.64;100.00;95162.84;5069809;28;24446;-76
2021/10/31 08:37:11;;;;;;;2.50;2.20;;;;;;;11.93;100.00;95162.41;5073731;28;24453;-76
2021/10/31 08:39:37;;;;;;;2.85;2.17;;;;;;;12.03;100.00;95160.75;5073627;28;24974;-76
2021/10/31 08:42:04;;;;;;;3.30;2.47;;;;;;;12.22;100.00;95158.34;5073847;28;24422;-76
2021/10/31 08:44:30;;;;;;;3.58;2.30;;;;;;;12.43;100.00;95161.03;5073686;28;20765;-76
2021/10/31 08:46:57;;;;;;;5.55;2.00;;;;;;;12.68;100.00;95162.50;5073415;28;24423;-76
2021/10/31 08:49:23;;;;;;;2.47;2.20;;;;;;;12.62;100.00;95159.56;5073173;28;24431;-75
2021/10/31 08:51:50;;;;;;;3.22;2.20;;;;;;;12.71;100.00;95158.78;5073460;28;24429;-75
2021/10/31 08:54:18;;;;;;;3.55;2.20;;;;;;;12.86;100.00;95154.94;5073317;28;24414;-76
2021/10/31 08:56:45;;;;;;;2.25;1.98;;;;;;;13.14;100.00;95150.09;5073360;28;24441;-75
2021/10/31 08:59:11;;;;;;;4.10;2.20;;;;;;;13.38;100.00;95139.44;5073349;28;24776;-76
2021/10/31 09:01:38;;;;;;;3.03;1.92;;;;;;;13.74;100.00;95138.13;5073380;28;24430;-76
2021/10/31 09:04:05;;;;;;;2.15;1.65;;;;;;;13.75;100.00;95147.56;5073363;28;24421;-75
2021/10/31 09:06:31;;;;;;;1.85;1.63;;;;;;;14.00;100.00;95146.28;5072867;28;24427;-76
2021/10/31 09:08:58;;;;;;;3.13;1.70;;;;;;;13.73;100.00;95134.69;5073068;28;24419;-76
2021/10/31 09:11:26;;;;;;;1.95;1.75;;;;;;;13.77;100.00;95124.84;5061570;28;24434;-76
2021/10/31 09:13:53;;;;;;;2.20;1.70;;;;;;;13.91;100.00;95128.88;5053052;28;24428;-76
2021/10/31 09:16:20;;;;;;;2.08;1.67;;;;;;;13.89;100.00;95126.38;5052927;28;24422;-76
2021/10/31 09:18:46;;;;;;;2.05;1.65;;;;;;;13.90;100.00;95122.81;5053121;28;24447;-76
2021/10/31 09:21:15;;;;;;;3.03;2.00;;;;;;;14.08;100.00;95124.78;5052684;28;24494;-75
2021/10/31 09:23:41;;;;;;;3.17;1.58;;;;;;;14.15;100.00;95121.53;5053193;28;24508;-76
2021/10/31 09:26:08;;;;;;;2.47;1.70;;;;;;;14.12;100.00;95115.75;5053602;28;24438;-73
2021/10/31 09:28:36;;;;;;;1.92;1.45;;;;;;;14.05;100.00;95110.25;5052822;28;24940;-73
2021/10/31 09:31:02;;;;;;;3.72;1.40;;;;;;;14.05;100.00;95110.25;5052964;28;24446;-74
2021/10/31 09:33:29;;;;;;;1.80;1.50;;;;;;;13.97;100.00;95107.50;5051727;28;24979;-75
2021/10/31 09:35:58;;;;;;;1.70;1.40;;;;;;;13.96;100.00;95109.28;5052154;28;24509;-74
2021/10/31 09:38:26;;;;;;;3.72;1.80;;;;;;;14.02;100.00;95110.53;5052962;28;24559;-74
2021/10/31 09:40:54;;;;;;;2.20;1.75;;;;;;;13.97;100.00;95104.91;5061036;28;24891;-75
2021/10/31 09:43:23;;;;;;;1.70;1.50;;;;;;;14.00;100.00;95102.03;5072699;28;24425;-75
2021/10/31 09:45:51;;;;;;;1.77;1.60;;;;;;;14.15;100.00;95100.69;5072364;28;24423;-75
2021/10/31 09:48:17;;;;;;;1.95;1.70;;;;;;;14.20;100.00;95100.28;5072752;28;24426;-75
2021/10/31 09:50:46;;;;;;;2.83;1.67;;;;;;;14.38;100.00;95103.88;5071982;28;24513;-75
2021/10/31 09:53:17;;;;;;;1.40;1.30;;;;;;;14.48;100.00;95106.50;5072660;28;24414;-75
2021/10/31 09:55:44;;;;;;;2.20;1.23;;;;;;;14.41;100.00;95111.41;5072244;28;24834;-75
2021/10/31 09:58:17;;;;;;;2.20;1.30;;;;;;;14.54;100.00;95111.19;5072415;28;24450;-75
2021/10/31 10:00:46;;;;;;;3.03;1.60;;;;;;;14.29;100.00;95110.72;5072458;28;24588;-74
2021/10/31 10:03:25;;;;;;;1.90;1.38;;;;;;;14.49;100.00;95106.38;5072269;28;24434;-74
2021/10/31 10:06:11;;;;;;;1.45;1.30;;;;;;;14.68;100.00;95091.72;5072204;28;24472;-75
2021/10/31 10:08:38;;;;;;;2.05;1.35;;;;;;;14.91;100.00;95090.47;5072435;28;24415;-75
2021/10/31 10:11:17;;;;;;;1.50;1.20;;;;;;;15.19;100.00;95098.38;5072079;28;24423;-75
2021/10/31 10:13:44;;;;;;;1.73;1.33;;;;;;;15.27;100.00;95079.41;5072168;28;24418;-75
2021/10/31 10:16:23;;;;;;;2.33;1.65;;;;;;;15.41;100.00;95082.38;5071778;28;24429;-75
2021/10/31 10:18:51;;;;;;;2.45;1.45;;;;;;;15.31;100.00;95075.53;5071641;28;24442;-74
2021/10/31 10:21:20;;;;;;;2.08;1.50;;;;;;;15.54;100.00;95083.88;5071476;28;24434;-74
2021/10/31 10:23:52;;;;;;;1.92;1.27;;;;;;;15.74;100.00;95069.78;5071550;28;24423;-74
2021/10/31 10:26:33;;;;;;;1.38;1.00;;;;;;;15.60;100.00;95072.84;5071561;28;24421;-75
2021/10/31 10:29:11;;;;;;;2.05;1.33;;;;;;;15.93;100.00;95064.44;5071823;28;24418;-75
2021/10/31 10:31:38;;;;;;;1.55;1.10;;;;;;;15.93;100.00;95064.44;5071642;28;24628;-74
2021/10/31 10:34:06;;;;;;;1.73;1.27;;;;;;;15.76;99.88;95061.78;5071419;28;24859;-75
2021/10/31 10:36:38;;;;;;;1.58;1.20;;;;;;;15.78;99.64;95060.69;5071146;28;24426;-75
2021/10/31 10:39:07;;;;;;;1.13;0.98;;;;;;;15.82;97.97;95056.00;5071707;28;24535;-75
2021/10/31 10:41:43;;;;;;;2.30;1.10;;;;;;;15.74;98.33;95059.34;5071510;28;25065;-75
2021/10/31 10:44:20;;;;;;;3.88;1.08;;;;;;;15.77;99.96;95056.44;5071288;28;24457;-75
2021/10/31 10:46:49;;;;;;;2.75;1.20;;;;;;;15.64;99.21;95054.13;5070531;28;24434;-75
2021/10/31 10:49:18;;;;;;;1.77;1.30;;;;;;;15.51;98.17;95051.03;5070945;28;24421;-76
2021/10/31 10:51:45;;;;;;;2.05;0.85;;;;;;;15.52;99.25;95044.84;5051182;28;24517;-74
2021/10/31 10:54:14;;;;;;;7.82;1.40;;;;;;;15.74;97.13;95038.47;5051425;28;24419;-76
2021/10/31 10:57:02;;;;;;;1.20;1.10;;;;;;;15.67;97.18;95033.00;5050885;28;24531;-77
2021/10/31 10:59:30;;;;;;;1.45;1.20;;;;;;;15.54;97.71;95036.88;5051072;28;24448;-76
2021/10/31 11:02:13;;;;;;;3.60;1.35;;;;;;;15.46;97.19;95024.53;5051485;28;24439;-76
2021/10/31 11:04:42;;;;;;;1.17;1.00;;;;;;;15.39;96.17;95023.50;5051045;28;24417;-76
2021/10/31 11:07:10;;;;;;;2.40;1.05;;;;;;;15.36;98.00;95021.97;5051352;28;24423;-76
2021/10/31 11:09:42;;;;;;;1.00;0.90;;;;;;;15.39;98.68;95011.25;5070208;28;24518;-77
2021/10/31 11:12:28;;;;;;;2.05;1.40;;;;;;;15.57;97.70;95005.25;5071687;28;24422;-76
2021/10/31 11:14:58;;;;;;;1.10;0.90;;;;;;;15.58;95.77;95007.75;5070920;28;24418;-76
2021/10/31 11:17:26;;;;;;;2.17;1.23;;;;;;;15.60;95.63;95000.56;5070984;28;24525;-76
2021/10/31 11:19:54;;;;;;;1.52;1.10;;;;;;;15.62;96.67;94998.66;5070618;28;24466;-76
2021/10/31 11:22:22;;;;;;;2.67;1.33;;;;;;;15.58;95.60;94988.66;5070759;28;24936;-76
2021/10/31 11:24:50;;;;;;;1.88;1.20;;;;;;;15.63;94.68;94989.84;5070758;28;24422;-76
2021/10/31 11:27:19;;;;;;;2.47;1.13;;;;;;;15.70;93.97;94985.72;5070909;28;24788;-76
2021/10/31 11:29:47;;;;;;;2.00;1.40;;;;;;;15.81;93.70;94976.03;5070658;28;24426;-75
2021/10/31 11:32:15;;;;;;;1.73;1.10;;;;;;;16.01;93.64;94974.09;5070767;28;24416;-76
2021/10/31 11:34:46;;;;;;;1.35;1.10;;;;;;;16.05;91.10;94963.19;5070209;28;24437;-76
2021/10/31 11:37:16;;;;;;;3.97;1.25;;;;;;;16.05;90.23;94960.59;5070837;28;24419;-76
2021/10/31 11:39:44;;;;;;;5.57;1.10;;;;;;;16.34;84.37;94960.34;5070869;28;24969;-76